createdAt,value
2022-10-06T03:53:02.735Z,8.70
2022-10-06T03:56:08.794Z,8.65
2022-10-06T03:59:13.295Z,8.64
2022-10-06T04:02:16.444Z,8.76
2022-10-06T04:05:19.026Z,8.89
2022-10-06T04:08:21.130Z,8.66
2022-10-06T04:11:28.734Z,8.65
2022-10-06T04:14:30.905Z,8.55
2022-10-06T04:17:33.509Z,8.49
2022-10-06T04:20:36.103Z,8.42
2022-10-06T04:23:38.889Z,8.42
2022-10-06T04:26:45.372Z,8.39
2022-10-06T04:29:47.911Z,8.40
2022-10-06T04:32:49.992Z,8.46
2022-10-06T04:36:00.889Z,8.35
2022-10-06T04:39:04.754Z,8.30
2022-10-06T04:42:07.663Z,8.34
2022-10-06T04:45:10.437Z,8.37
2022-10-06T04:48:13.966Z,8.41
2022-10-06T04:51:17.131Z,8.69
2022-10-06T04:54:19.856Z,8.48
2022-10-06T04:57:33.618Z,8.40
2022-10-06T05:00:36.104Z,8.24
2022-10-06T05:03:39.296Z,8.21
2022-10-06T05:06:42.722Z,8.23
2022-10-06T05:09:45.690Z,8.29
2022-10-06T05:12:48.027Z,8.26
2022-10-06T05:15:58.254Z,8.35
2022-10-06T05:19:02.140Z,8.29
2022-10-06T05:22:04.743Z,8.29
2022-10-06T05:25:07.671Z,8.33
2022-10-06T05:28:09.791Z,8.41
2022-10-06T05:31:20.084Z,8.55
2022-10-06T05:34:22.497Z,8.58
2022-10-06T05:37:26.268Z,8.61
2022-10-06T05:40:28.425Z,8.65
2022-10-06T05:43:31.758Z,8.74
2022-10-06T05:46:34.530Z,8.81
2022-10-06T05:49:36.962Z,8.89
2022-10-06T05:52:39.186Z,9.04
2022-10-06T05:55:41.882Z,9.11
2022-10-06T05:58:49.314Z,9.22
2022-10-06T06:01:52.199Z,9.42
2022-10-06T06:04:55.522Z,9.51
2022-10-06T06:07:57.693Z,9.55
2022-10-06T06:11:07.648Z,9.63
2022-10-06T06:14:12.453Z,9.61
2022-10-06T06:17:15.226Z,9.62
2022-10-06T06:20:17.354Z,9.76
2022-10-06T06:23:19.810Z,9.88
2022-10-06T06:26:24.973Z,9.82
2022-10-06T06:29:27.877Z,9.83
2022-10-06T06:32:31.727Z,9.82
2022-10-06T06:35:34.842Z,9.79
2022-10-06T06:38:37.004Z,9.85
2022-10-06T06:41:41.720Z,9.87
2022-10-06T06:44:44.497Z,9.82
2022-10-06T06:47:48.211Z,9.88
2022-10-06T06:50:58.292Z,9.91
2022-10-06T06:54:03.104Z,10.10
2022-10-06T06:57:07.208Z,10.19
2022-10-06T07:00:10.339Z,10.31
2022-10-06T07:03:16.739Z,10.44
2022-10-06T07:06:28.189Z,10.51
2022-10-06T07:09:31.022Z,10.58
2022-10-06T07:12:34.039Z,10.75
2022-10-06T07:15:54.838Z,10.92
2022-10-06T07:19:16.051Z,11.06
2022-10-06T07:22:40.760Z,11.16
2022-10-06T07:25:43.433Z,11.33
2022-10-06T07:28:46.195Z,11.48
2022-10-06T07:31:50.028Z,11.71
2022-10-06T07:34:52.849Z,11.79
2022-10-06T07:37:55.734Z,11.91
2022-10-06T07:41:18.395Z,12.21
2022-10-06T07:44:22.022Z,12.42
2022-10-06T07:47:24.406Z,12.51
2022-10-06T07:50:26.979Z,12.61
2022-10-06T07:53:29.283Z,12.73
2022-10-06T07:56:31.913Z,12.91
2022-10-06T07:59:35.096Z,12.95
2022-10-06T08:02:39.112Z,12.99
2022-10-06T08:05:41.431Z,13.03
2022-10-06T08:08:47.091Z,13.18
2022-10-06T08:11:52.939Z,13.29
2022-10-06T08:14:55.321Z,13.39
2022-10-06T08:18:02.182Z,13.66
2022-10-06T08:21:15.425Z,13.85
2022-10-06T08:24:17.812Z,13.84
2022-10-06T08:27:19.864Z,14.01
2022-10-06T08:30:26.984Z,14.11
2022-10-06T08:33:29.030Z,14.21
2022-10-06T08:36:32.741Z,14.24
2022-10-06T08:39:34.948Z,14.42
2022-10-06T08:42:42.438Z,14.58
2022-10-06T08:45:46.759Z,14.61
2022-10-06T08:48:49.306Z,14.67
2022-10-06T08:52:03.234Z,14.80
2022-10-06T08:55:14.520Z,14.95
2022-10-06T08:58:36.323Z,15.06
2022-10-06T09:01:45.548Z,15.04
2022-10-06T09:04:49.597Z,15.04
2022-10-06T09:08:25.477Z,15.20
2022-10-06T09:12:03.305Z,15.32
2022-10-06T09:15:14.774Z,15.34
2022-10-06T09:18:49.457Z,15.47
2022-10-06T09:22:05.610Z,15.61
2022-10-06T09:25:28.449Z,15.84
2022-10-06T09:28:34.700Z,15.96
2022-10-06T09:31:40.217Z,16.02
2022-10-06T09:34:56.331Z,16.17
2022-10-06T09:38:08.368Z,16.33
2022-10-06T09:41:13.391Z,16.52
2022-10-06T09:44:24.922Z,16.67
2022-10-06T09:47:35.196Z,16.68
2022-10-06T09:50:37.308Z,16.61
2022-10-06T09:53:43.827Z,16.70
2022-10-06T09:56:47.257Z,16.73
2022-10-06T09:59:49.614Z,16.80
2022-10-06T10:03:04.253Z,16.81
2022-10-06T10:06:06.653Z,16.81
2022-10-06T10:09:23.941Z,16.83
2022-10-06T10:12:30.807Z,16.82
2022-10-06T10:15:53.467Z,16.99
2022-10-06T10:18:55.895Z,17.26
2022-10-06T10:21:59.837Z,17.39
2022-10-06T10:25:07.938Z,17.51
2022-10-06T10:28:28.723Z,17.59
2022-10-06T10:32:08.308Z,17.62
2022-10-06T10:35:56.859Z,17.76
2022-10-06T10:39:01.313Z,18.00
2022-10-06T10:42:13.828Z,17.98
2022-10-06T10:45:32.222Z,17.87
2022-10-06T10:48:42.657Z,17.78
2022-10-06T10:51:53.453Z,17.66
2022-10-06T10:55:26.702Z,17.61
2022-10-06T10:58:34.893Z,17.51
2022-10-06T11:01:53.490Z,17.55
2022-10-06T11:05:28.932Z,17.60
2022-10-06T11:08:56.309Z,17.56
2022-10-06T11:12:11.733Z,17.57
2022-10-06T11:15:37.084Z,17.55
2022-10-06T11:19:14.757Z,17.61
2022-10-06T11:22:43.911Z,17.73
2022-10-06T11:26:05.303Z,17.88
2022-10-06T11:29:27.062Z,17.87
2022-10-06T11:32:54.515Z,17.97
2022-10-06T11:35:56.618Z,17.99
2022-10-06T11:39:11.082Z,18.06
2022-10-06T11:42:49.023Z,18.23
2022-10-06T11:46:02.226Z,18.37
2022-10-06T11:49:28.721Z,18.54
2022-10-06T11:52:30.926Z,18.84
2022-10-06T11:55:32.975Z,19.02
2022-10-06T11:58:56.926Z,19.25
2022-10-06T12:02:01.313Z,19.35
2022-10-06T12:05:28.473Z,19.44
2022-10-06T12:08:39.086Z,19.38
2022-10-06T12:11:43.002Z,19.36
2022-10-06T12:16:55.317Z,19.36
2022-10-06T12:18:37.660Z,19.41
2022-10-06T12:21:49.041Z,19.36
2022-10-06T12:25:00.888Z,19.43
2022-10-06T12:28:12.124Z,19.39
2022-10-06T12:31:41.348Z,19.36
2022-10-06T12:34:45.499Z,19.53
2022-10-06T12:37:54.894Z,19.58
2022-10-06T12:40:57.618Z,19.73
2022-10-06T12:44:00.689Z,19.99
2022-10-06T12:47:11.272Z,19.93
2022-10-06T12:50:25.887Z,19.81
2022-10-06T12:53:32.757Z,19.67
2022-10-06T12:56:40.897Z,19.67
2022-10-06T12:59:43.052Z,19.56
2022-10-06T13:02:45.798Z,19.67
2022-10-06T13:05:51.900Z,19.63
2022-10-06T13:09:13.824Z,19.61
2022-10-06T13:12:30.962Z,19.71
2022-10-06T13:15:35.525Z,19.63
2022-10-06T13:18:37.590Z,19.60
2022-10-06T13:21:39.932Z,19.62
2022-10-06T13:24:42.012Z,19.59
2022-10-06T13:27:51.861Z,19.62
2022-10-06T13:34:18.727Z,19.60
2022-10-06T13:37:20.863Z,19.58
2022-10-06T13:40:45.654Z,19.59
2022-10-06T13:43:54.815Z,19.48
2022-10-06T13:47:29.669Z,19.49
2022-10-06T13:50:31.916Z,19.40
2022-10-06T13:53:34.512Z,19.33
2022-10-06T13:56:40.331Z,19.29
2022-10-06T13:59:42.688Z,19.24
2022-10-06T14:02:48.184Z,19.23
2022-10-06T14:06:03.760Z,19.29
2022-10-06T14:09:12.090Z,19.29
2022-10-06T14:12:20.425Z,19.38
2022-10-06T14:15:28.547Z,19.34
2022-10-06T14:18:39.894Z,19.27
2022-10-06T14:21:44.780Z,19.22
2022-10-06T14:24:53.753Z,19.20
2022-10-06T14:27:55.921Z,19.12
2022-10-06T14:30:58.776Z,19.09
2022-10-06T14:34:02.421Z,19.01
2022-10-06T14:37:04.693Z,18.99
2022-10-06T14:40:11.829Z,18.93
2022-10-06T14:43:14.532Z,18.89
2022-10-06T14:46:16.760Z,18.80
2022-10-06T14:49:19.709Z,18.76
2022-10-06T14:52:22.199Z,18.76
2022-10-06T14:55:29.692Z,18.73
2022-10-06T14:58:32.982Z,18.70
2022-10-06T15:01:37.719Z,18.73
2022-10-06T15:04:39.752Z,18.70
2022-10-06T15:08:00.873Z,18.59
2022-10-06T15:11:02.898Z,18.52
2022-10-06T15:14:08.453Z,18.46
2022-10-06T15:17:10.507Z,18.41
